sensor_id;sensor_type;location;lat;lon;timestamp;temperature;humidity
16182;DHT22;8197;51.664;7.114;2024-03-02T00:03:23;8.60;77.30
16182;DHT22;8197;51.664;7.114;2024-03-02T00:08:28;8.60;77.80
16182;DHT22;8197;51.664;7.114;2024-03-02T00:13:32;8.60;77.70
16182;DHT22;8197;51.664;7.114;2024-03-02T00:18:36;8.70;77.90
16182;DHT22;8197;51.664;7.114;2024-03-02T00:23:41;8.60;77.90
16182;DHT22;8197;51.664;7.114;2024-03-02T00:28:44;8.70;78.00
16182;DHT22;8197;51.664;7.114;2024-03-02T00:33:49;8.60;78.40
16182;DHT22;8197;51.664;7.114;2024-03-02T00:38:54;8.60;78.60
16182;DHT22;8197;51.664;7.114;2024-03-02T00:43:59;8.60;78.40
16182;DHT22;8197;51.664;7.114;2024-03-02T00:49:04;8.60;78.70
16182;DHT22;8197;51.664;7.114;2024-03-02T00:54:09;8.60;78.90
16182;DHT22;8197;51.664;7.114;2024-03-02T00:59:13;8.50;78.90
16182;DHT22;8197;51.664;7.114;2024-03-02T01:04:16;8.50;79.00
16182;DHT22;8197;51.664;7.114;2024-03-02T01:09:20;8.50;79.10
16182;DHT22;8197;51.664;7.114;2024-03-02T01:14:23;8.60;78.80
16182;DHT22;8197;51.664;7.114;2024-03-02T01:19:26;8.50;79.00
16182;DHT22;8197;51.664;7.114;2024-03-02T01:24:31;8.50;78.90
16182;DHT22;8197;51.664;7.114;2024-03-02T01:29:34;8.50;78.70
16182;DHT22;8197;51.664;7.114;2024-03-02T01:34:36;8.50;78.70
16182;DHT22;8197;51.664;7.114;2024-03-02T01:39:41;8.60;78.30
16182;DHT22;8197;51.664;7.114;2024-03-02T01:44:44;8.60;78.10
16182;DHT22;8197;51.664;7.114;2024-03-02T01:49:47;8.60;78.10
16182;DHT22;8197;51.664;7.114;2024-03-02T01:54:51;8.70;77.80
16182;DHT22;8197;51.664;7.114;2024-03-02T01:59:54;8.70;77.70
16182;DHT22;8197;51.664;7.114;2024-03-02T02:04:57;8.70;77.70
16182;DHT22;8197;51.664;7.114;2024-03-02T02:10:02;8.80;77.20
16182;DHT22;8197;51.664;7.114;2024-03-02T02:15:22;8.80;77.00
16182;DHT22;8197;51.664;7.114;2024-03-02T02:20:25;8.80;77.10
16182;DHT22;8197;51.664;7.114;2024-03-02T02:25:29;8.80;76.80
16182;DHT22;8197;51.664;7.114;2024-03-02T02:30:32;8.80;76.80
16182;DHT22;8197;51.664;7.114;2024-03-02T02:35:39;8.80;76.70
16182;DHT22;8197;51.664;7.114;2024-03-02T02:40:44;8.80;77.10
16182;DHT22;8197;51.664;7.114;2024-03-02T02:45:48;8.80;76.70
16182;DHT22;8197;51.664;7.114;2024-03-02T02:50:51;8.80;76.40
16182;DHT22;8197;51.664;7.114;2024-03-02T02:55:55;8.80;76.30
16182;DHT22;8197;51.664;7.114;2024-03-02T03:00:58;8.80;76.30
16182;DHT22;8197;51.664;7.114;2024-03-02T03:06:01;8.80;76.10
16182;DHT22;8197;51.664;7.114;2024-03-02T03:11:06;8.80;76.00
16182;DHT22;8197;51.664;7.114;2024-03-02T03:16:09;8.90;75.90
16182;DHT22;8197;51.664;7.114;2024-03-02T03:21:12;8.90;75.30
16182;DHT22;8197;51.664;7.114;2024-03-02T03:26:16;9.00;75.60
16182;DHT22;8197;51.664;7.114;2024-03-02T03:31:19;9.00;75.10
16182;DHT22;8197;51.664;7.114;2024-03-02T03:36:22;9.00;75.00
16182;DHT22;8197;51.664;7.114;2024-03-02T03:41:26;9.00;75.40
16182;DHT22;8197;51.664;7.114;2024-03-02T03:46:29;8.90;75.40
16182;DHT22;8197;51.664;7.114;2024-03-02T03:51:32;8.90;75.30
16182;DHT22;8197;51.664;7.114;2024-03-02T03:56:37;8.90;75.70
16182;DHT22;8197;51.664;7.114;2024-03-02T04:01:40;8.90;75.80
16182;DHT22;8197;51.664;7.114;2024-03-02T04:06:45;8.90;75.90
16182;DHT22;8197;51.664;7.114;2024-03-02T04:11:50;8.90;75.80
16182;DHT22;8197;51.664;7.114;2024-03-02T04:16:53;8.90;76.00
16182;DHT22;8197;51.664;7.114;2024-03-02T04:21:56;8.90;75.80
16182;DHT22;8197;51.664;7.114;2024-03-02T04:27:03;8.90;76.00
16182;DHT22;8197;51.664;7.114;2024-03-02T04:32:06;8.80;76.10
16182;DHT22;8197;51.664;7.114;2024-03-02T04:37:11;8.80;76.30
16182;DHT22;8197;51.664;7.114;2024-03-02T04:42:17;8.80;76.50
16182;DHT22;8197;51.664;7.114;2024-03-02T04:47:20;8.80;76.70
16182;DHT22;8197;51.664;7.114;2024-03-02T04:52:23;8.70;77.00
16182;DHT22;8197;51.664;7.114;2024-03-02T04:57:27;8.70;77.00
16182;DHT22;8197;51.664;7.114;2024-03-02T05:02:30;8.70;77.00
16182;DHT22;8197;51.664;7.114;2024-03-02T05:07:33;8.70;76.80
16182;DHT22;8197;51.664;7.114;2024-03-02T05:12:37;8.70;76.70
16182;DHT22;8197;51.664;7.114;2024-03-02T05:17:58;8.60;77.10
16182;DHT22;8197;51.664;7.114;2024-03-02T05:23:04;8.60;77.60
16182;DHT22;8197;51.664;7.114;2024-03-02T05:28:08;8.60;77.90
16182;DHT22;8197;51.664;7.114;2024-03-02T05:33:11;8.50;77.90
16182;DHT22;8197;51.664;7.114;2024-03-02T05:38:14;8.40;78.10
16182;DHT22;8197;51.664;7.114;2024-03-02T05:43:19;8.40;78.50
16182;DHT22;8197;51.664;7.114;2024-03-02T05:48:22;8.30;78.60
16182;DHT22;8197;51.664;7.114;2024-03-02T05:53:25;8.30;78.50
16182;DHT22;8197;51.664;7.114;2024-03-02T05:58:29;8.30;78.50
16182;DHT22;8197;51.664;7.114;2024-03-02T06:03:44;8.30;78.80
16182;DHT22;8197;51.664;7.114;2024-03-02T06:08:47;8.20;78.90
16182;DHT22;8197;51.664;7.114;2024-03-02T06:13:51;8.20;78.90
16182;DHT22;8197;51.664;7.114;2024-03-02T06:18:54;8.20;78.90
16182;DHT22;8197;51.664;7.114;2024-03-02T06:23:59;8.20;79.10
16182;DHT22;8197;51.664;7.114;2024-03-02T06:29:04;8.10;79.40
16182;DHT22;8197;51.664;7.114;2024-03-02T06:34:07;8.10;79.70
16182;DHT22;8197;51.664;7.114;2024-03-02T06:39:10;8.00;80.20
16182;DHT22;8197;51.664;7.114;2024-03-02T06:44:15;8.00;80.60
16182;DHT22;8197;51.664;7.114;2024-03-02T06:49:18;7.90;80.90
16182;DHT22;8197;51.664;7.114;2024-03-02T06:54:21;7.90;80.80
16182;DHT22;8197;51.664;7.114;2024-03-02T06:59:25;7.90;80.80
16182;DHT22;8197;51.664;7.114;2024-03-02T07:04:28;8.00;80.50
16182;DHT22;8197;51.664;7.114;2024-03-02T07:09:31;8.00;80.20
16182;DHT22;8197;51.664;7.114;2024-03-02T07:14:36;8.00;80.10
16182;DHT22;8197;51.664;7.114;2024-03-02T07:20:12;8.00;80.10
16182;DHT22;8197;51.664;7.114;2024-03-02T07:25:15;8.10;79.90
16182;DHT22;8197;51.664;7.114;2024-03-02T07:30:22;8.10;79.90
16182;DHT22;8197;51.664;7.114;2024-03-02T07:35:25;8.20;79.50
16182;DHT22;8197;51.664;7.114;2024-03-02T07:40:29;8.30;79.10
16182;DHT22;8197;51.664;7.114;2024-03-02T07:45:34;8.50;78.90
16182;DHT22;8197;51.664;7.114;2024-03-02T07:50:38;8.70;78.00
16182;DHT22;8197;51.664;7.114;2024-03-02T07:55:41;8.90;77.20
16182;DHT22;8197;51.664;7.114;2024-03-02T08:00:45;9.00;76.60
16182;DHT22;8197;51.664;7.114;2024-03-02T08:05:49;9.20;76.00
16182;DHT22;8197;51.664;7.114;2024-03-02T08:10:52;9.30;75.10
16182;DHT22;8197;51.664;7.114;2024-03-02T08:15:56;9.30;75.00
16182;DHT22;8197;51.664;7.114;2024-03-02T08:20:59;9.50;74.40
16182;DHT22;8197;51.664;7.114;2024-03-02T08:26:03;9.60;74.20
16182;DHT22;8197;51.664;7.114;2024-03-02T08:31:07;9.70;73.80
16182;DHT22;8197;51.664;7.114;2024-03-02T08:36:11;9.90;73.00
16182;DHT22;8197;51.664;7.114;2024-03-02T08:41:14;10.00;72.20
16182;DHT22;8197;51.664;7.114;2024-03-02T08:46:19;10.10;71.90
16182;DHT22;8197;51.664;7.114;2024-03-02T08:51:22;10.40;71.40
16182;DHT22;8197;51.664;7.114;2024-03-02T08:56:25;10.60;70.40
16182;DHT22;8197;51.664;7.114;2024-03-02T09:01:30;10.80;69.30
16182;DHT22;8197;51.664;7.114;2024-03-02T09:06:33;11.00;69.10
16182;DHT22;8197;51.664;7.114;2024-03-02T09:11:39;11.10;68.10
16182;DHT22;8197;51.664;7.114;2024-03-02T09:16:44;11.40;68.20
16182;DHT22;8197;51.664;7.114;2024-03-02T09:21:49;11.60;66.30
16182;DHT22;8197;51.664;7.114;2024-03-02T09:26:53;11.70;66.30
16182;DHT22;8197;51.664;7.114;2024-03-02T09:31:57;11.90;66.20
16182;DHT22;8197;51.664;7.114;2024-03-02T09:37:00;12.20;65.40
16182;DHT22;8197;51.664;7.114;2024-03-02T09:42:04;12.40;64.20
16182;DHT22;8197;51.664;7.114;2024-03-02T09:47:09;12.50;63.60
16182;DHT22;8197;51.664;7.114;2024-03-02T09:52:13;12.70;63.20
16182;DHT22;8197;51.664;7.114;2024-03-02T09:57:16;12.90;61.40
16182;DHT22;8197;51.664;7.114;2024-03-02T10:02:20;13.10;60.90
16182;DHT22;8197;51.664;7.114;2024-03-02T10:07:24;13.20;59.50
16182;DHT22;8197;51.664;7.114;2024-03-02T10:12:26;13.40;60.20
16182;DHT22;8197;51.664;7.114;2024-03-02T10:17:31;13.50;59.60
16182;DHT22;8197;51.664;7.114;2024-03-02T10:22:34;13.80;57.90
16182;DHT22;8197;51.664;7.114;2024-03-02T10:27:37;13.80;57.20
16182;DHT22;8197;51.664;7.114;2024-03-02T10:32:41;13.90;56.90
16182;DHT22;8197;51.664;7.114;2024-03-02T10:37:44;14.00;55.70
16182;DHT22;8197;51.664;7.114;2024-03-02T10:42:48;14.10;56.30
16182;DHT22;8197;51.664;7.114;2024-03-02T10:47:53;14.10;55.80
16182;DHT22;8197;51.664;7.114;2024-03-02T10:52:56;14.50;55.00
16182;DHT22;8197;51.664;7.114;2024-03-02T10:58:00;14.50;53.60
16182;DHT22;8197;51.664;7.114;2024-03-02T11:03:11;14.60;54.70
16182;DHT22;8197;51.664;7.114;2024-03-02T11:08:18;14.80;54.00
16182;DHT22;8197;51.664;7.114;2024-03-02T11:13:27;14.50;55.20
16182;DHT22;8197;51.664;7.114;2024-03-02T11:18:35;14.50;54.60
16182;DHT22;8197;51.664;7.114;2024-03-02T11:23:38;14.90;53.10
16182;DHT22;8197;51.664;7.114;2024-03-02T11:28:41;15.10;54.00
16182;DHT22;8197;51.664;7.114;2024-03-02T11:33:45;15.20;53.70
16182;DHT22;8197;51.664;7.114;2024-03-02T11:38:49;15.30;52.60
16182;DHT22;8197;51.664;7.114;2024-03-02T11:43:55;15.30;53.20
16182;DHT22;8197;51.664;7.114;2024-03-02T11:48:59;15.20;53.70
16182;DHT22;8197;51.664;7.114;2024-03-02T11:54:03;14.80;53.20
16182;DHT22;8197;51.664;7.114;2024-03-02T11:59:07;15.30;52.90
16182;DHT22;8197;51.664;7.114;2024-03-02T12:04:14;15.30;52.10
16182;DHT22;8197;51.664;7.114;2024-03-02T12:09:18;15.50;51.40
16182;DHT22;8197;51.664;7.114;2024-03-02T12:14:21;15.60;51.00
16182;DHT22;8197;51.664;7.114;2024-03-02T12:19:25;15.80;50.30
16182;DHT22;8197;51.664;7.114;2024-03-02T12:24:30;15.90;48.90
16182;DHT22;8197;51.664;7.114;2024-03-02T12:29:37;15.90;48.70
16182;DHT22;8197;51.664;7.114;2024-03-02T12:34:46;15.90;49.20
16182;DHT22;8197;51.664;7.114;2024-03-02T12:39:49;15.60;49.00
16182;DHT22;8197;51.664;7.114;2024-03-02T12:44:52;15.70;50.30
16182;DHT22;8197;51.664;7.114;2024-03-02T12:49:58;15.50;49.10
16182;DHT22;8197;51.664;7.114;2024-03-02T12:55:03;15.50;51.50
16182;DHT22;8197;51.664;7.114;2024-03-02T13:00:08;15.70;50.80
16182;DHT22;8197;51.664;7.114;2024-03-02T13:05:12;15.90;51.20
16182;DHT22;8197;51.664;7.114;2024-03-02T13:10:18;15.80;51.00
16182;DHT22;8197;51.664;7.114;2024-03-02T13:15:21;15.60;51.40
16182;DHT22;8197;51.664;7.114;2024-03-02T13:20:30;15.50;51.80
16182;DHT22;8197;51.664;7.114;2024-03-02T13:25:34;15.60;52.60
16182;DHT22;8197;51.664;7.114;2024-03-02T13:30:37;15.50;52.10
16182;DHT22;8197;51.664;7.114;2024-03-02T13:35:44;15.60;52.60
16182;DHT22;8197;51.664;7.114;2024-03-02T13:40:49;15.60;52.30
16182;DHT22;8197;51.664;7.114;2024-03-02T13:45:53;15.50;51.50
16182;DHT22;8197;51.664;7.114;2024-03-02T13:50:58;15.60;52.20
16182;DHT22;8197;51.664;7.114;2024-03-02T13:56:01;15.60;52.40
16182;DHT22;8197;51.664;7.114;2024-03-02T14:01:05;15.50;52.00
16182;DHT22;8197;51.664;7.114;2024-03-02T14:06:09;15.40;52.70
16182;DHT22;8197;51.664;7.114;2024-03-02T14:11:13;15.30;53.80
16182;DHT22;8197;51.664;7.114;2024-03-02T14:16:17;15.30;53.80
16182;DHT22;8197;51.664;7.114;2024-03-02T14:21:22;15.20;53.60
16182;DHT22;8197;51.664;7.114;2024-03-02T14:26:25;15.10;54.00
16182;DHT22;8197;51.664;7.114;2024-03-02T14:31:29;15.10;53.80
16182;DHT22;8197;51.664;7.114;2024-03-02T14:36:34;15.00;53.20
16182;DHT22;8197;51.664;7.114;2024-03-02T14:41:37;14.90;53.50
16182;DHT22;8197;51.664;7.114;2024-03-02T14:46:41;14.90;54.40
16182;DHT22;8197;51.664;7.114;2024-03-02T14:51:47;14.90;54.20
16182;DHT22;8197;51.664;7.114;2024-03-02T14:56:51;15.00;53.60
16182;DHT22;8197;51.664;7.114;2024-03-02T15:01:54;15.10;53.20
16182;DHT22;8197;51.664;7.114;2024-03-02T15:06:58;15.20;53.20
16182;DHT22;8197;51.664;7.114;2024-03-02T15:12:02;15.30;53.80
16182;DHT22;8197;51.664;7.114;2024-03-02T15:17:05;15.30;53.10
16182;DHT22;8197;51.664;7.114;2024-03-02T15:22:09;15.20;53.40
16182;DHT22;8197;51.664;7.114;2024-03-02T15:27:13;15.00;53.90
16182;DHT22;8197;51.664;7.114;2024-03-02T15:32:16;14.90;54.70
16182;DHT22;8197;51.664;7.114;2024-03-02T15:37:20;14.80;55.20
16182;DHT22;8197;51.664;7.114;2024-03-02T15:42:23;14.80;55.50
16182;DHT22;8197;51.664;7.114;2024-03-02T15:47:27;14.70;55.70
16182;DHT22;8197;51.664;7.114;2024-03-02T15:52:32;14.60;56.00
16182;DHT22;8197;51.664;7.114;2024-03-02T15:57:35;14.60;55.90
16182;DHT22;8197;51.664;7.114;2024-03-02T16:02:38;14.60;56.10
16182;DHT22;8197;51.664;7.114;2024-03-02T16:07:44;14.60;57.40
16182;DHT22;8197;51.664;7.114;2024-03-02T16:12:47;14.50;57.10
16182;DHT22;8197;51.664;7.114;2024-03-02T16:17:50;14.40;57.70
16182;DHT22;8197;51.664;7.114;2024-03-02T16:22:54;14.30;57.90
16182;DHT22;8197;51.664;7.114;2024-03-02T16:27:57;14.20;57.80
16182;DHT22;8197;51.664;7.114;2024-03-02T16:33:03;14.20;57.80
16182;DHT22;8197;51.664;7.114;2024-03-02T16:38:07;14.10;58.10
16182;DHT22;8197;51.664;7.114;2024-03-02T16:43:12;14.10;58.60
16182;DHT22;8197;51.664;7.114;2024-03-02T16:48:15;14.10;58.80
16182;DHT22;8197;51.664;7.114;2024-03-02T16:53:20;14.00;59.40
16182;DHT22;8197;51.664;7.114;2024-03-02T16:58:24;13.90;60.30
16182;DHT22;8197;51.664;7.114;2024-03-02T17:03:27;13.90;60.50
16182;DHT22;8197;51.664;7.114;2024-03-02T17:08:31;13.80;60.20
16182;DHT22;8197;51.664;7.114;2024-03-02T17:13:37;13.70;60.70
16182;DHT22;8197;51.664;7.114;2024-03-02T17:18:40;13.60;60.90
16182;DHT22;8197;51.664;7.114;2024-03-02T17:23:45;13.50;61.20
16182;DHT22;8197;51.664;7.114;2024-03-02T17:28:48;13.50;61.10
16182;DHT22;8197;51.664;7.114;2024-03-02T17:33:51;13.50;61.30
16182;DHT22;8197;51.664;7.114;2024-03-02T17:38:55;13.50;61.90
16182;DHT22;8197;51.664;7.114;2024-03-02T17:43:59;13.50;61.20
16182;DHT22;8197;51.664;7.114;2024-03-02T17:49:02;13.50;61.20
16182;DHT22;8197;51.664;7.114;2024-03-02T17:54:06;13.50;60.50
16182;DHT22;8197;51.664;7.114;2024-03-02T17:59:09;13.40;61.20
16182;DHT22;8197;51.664;7.114;2024-03-02T18:04:12;13.40;60.30
16182;DHT22;8197;51.664;7.114;2024-03-02T18:09:17;13.30;61.40
16182;DHT22;8197;51.664;7.114;2024-03-02T18:14:20;13.30;61.90
16182;DHT22;8197;51.664;7.114;2024-03-02T18:19:23;13.30;60.90
16182;DHT22;8197;51.664;7.114;2024-03-02T18:24:28;13.20;61.00
16182;DHT22;8197;51.664;7.114;2024-03-02T18:29:30;13.20;60.20
16182;DHT22;8197;51.664;7.114;2024-03-02T18:34:33;13.20;60.00
16182;DHT22;8197;51.664;7.114;2024-03-02T18:39:42;13.20;60.30
16182;DHT22;8197;51.664;7.114;2024-03-02T18:44:45;13.20;60.10
16182;DHT22;8197;51.664;7.114;2024-03-02T18:49:48;13.20;60.20
16182;DHT22;8197;51.664;7.114;2024-03-02T18:54:53;13.20;60.50
16182;DHT22;8197;51.664;7.114;2024-03-02T18:59:58;13.20;60.40
16182;DHT22;8197;51.664;7.114;2024-03-02T19:05:01;13.10;60.50
16182;DHT22;8197;51.664;7.114;2024-03-02T19:10:08;13.10;60.60
16182;DHT22;8197;51.664;7.114;2024-03-02T19:15:12;13.10;61.30
16182;DHT22;8197;51.664;7.114;2024-03-02T19:20:16;13.00;61.60
16182;DHT22;8197;51.664;7.114;2024-03-02T19:25:20;13.00;62.40
16182;DHT22;8197;51.664;7.114;2024-03-02T19:30:23;12.90;63.20
16182;DHT22;8197;51.664;7.114;2024-03-02T19:35:26;12.80;62.70
16182;DHT22;8197;51.664;7.114;2024-03-02T19:40:32;12.80;63.20
16182;DHT22;8197;51.664;7.114;2024-03-02T19:45:35;12.80;63.20
16182;DHT22;8197;51.664;7.114;2024-03-02T19:50:37;12.70;62.90
16182;DHT22;8197;51.664;7.114;2024-03-02T19:55:43;12.70;63.40
16182;DHT22;8197;51.664;7.114;2024-03-02T20:00:48;12.70;63.00
16182;DHT22;8197;51.664;7.114;2024-03-02T20:05:51;12.70;63.60
16182;DHT22;8197;51.664;7.114;2024-03-02T20:10:55;12.60;64.10
16182;DHT22;8197;51.664;7.114;2024-03-02T20:15:58;12.60;64.50
16182;DHT22;8197;51.664;7.114;2024-03-02T20:21:01;12.60;64.40
16182;DHT22;8197;51.664;7.114;2024-03-02T20:26:06;12.50;64.60
16182;DHT22;8197;51.664;7.114;2024-03-02T20:31:09;12.50;64.60
16182;DHT22;8197;51.664;7.114;2024-03-02T20:36:13;12.50;64.40
16182;DHT22;8197;51.664;7.114;2024-03-02T20:41:18;12.40;65.00
16182;DHT22;8197;51.664;7.114;2024-03-02T20:46:21;12.40;65.20
16182;DHT22;8197;51.664;7.114;2024-03-02T20:51:24;12.30;65.20
16182;DHT22;8197;51.664;7.114;2024-03-02T20:56:31;12.30;65.50
16182;DHT22;8197;51.664;7.114;2024-03-02T21:01:40;12.30;64.90
16182;DHT22;8197;51.664;7.114;2024-03-02T21:06:45;12.30;64.90
16182;DHT22;8197;51.664;7.114;2024-03-02T21:11:50;12.30;65.20
16182;DHT22;8197;51.664;7.114;2024-03-02T21:16:53;12.30;65.30
16182;DHT22;8197;51.664;7.114;2024-03-02T21:21:56;12.30;65.10
16182;DHT22;8197;51.664;7.114;2024-03-02T21:27:01;12.30;65.00
16182;DHT22;8197;51.664;7.114;2024-03-02T21:32:05;12.30;65.50
16182;DHT22;8197;51.664;7.114;2024-03-02T21:37:08;12.20;65.80
16182;DHT22;8197;51.664;7.114;2024-03-02T21:42:13;12.10;66.40
16182;DHT22;8197;51.664;7.114;2024-03-02T21:47:15;12.00;67.00
16182;DHT22;8197;51.664;7.114;2024-03-02T21:52:20;11.90;67.60
16182;DHT22;8197;51.664;7.114;2024-03-02T21:57:24;11.80;67.80
16182;DHT22;8197;51.664;7.114;2024-03-02T22:02:27;11.70;67.80
16182;DHT22;8197;51.664;7.114;2024-03-02T22:07:30;11.70;68.70
16182;DHT22;8197;51.664;7.114;2024-03-02T22:12:34;11.60;68.60
16182;DHT22;8197;51.664;7.114;2024-03-02T22:17:37;11.50;69.20
16182;DHT22;8197;51.664;7.114;2024-03-02T22:22:40;11.40;69.50
16182;DHT22;8197;51.664;7.114;2024-03-02T22:27:46;11.40;69.90
16182;DHT22;8197;51.664;7.114;2024-03-02T22:32:56;11.30;70.20
16182;DHT22;8197;51.664;7.114;2024-03-02T22:37:59;11.20;70.30
16182;DHT22;8197;51.664;7.114;2024-03-02T22:43:04;11.00;70.70
16182;DHT22;8197;51.664;7.114;2024-03-02T22:48:07;11.00;71.40
16182;DHT22;8197;51.664;7.114;2024-03-02T22:53:10;10.90;71.50
16182;DHT22;8197;51.664;7.114;2024-03-02T22:58:14;10.90;71.60
16182;DHT22;8197;51.664;7.114;2024-03-02T23:03:19;10.90;72.00
16182;DHT22;8197;51.664;7.114;2024-03-02T23:08:22;10.90;72.50
16182;DHT22;8197;51.664;7.114;2024-03-02T23:13:26;10.80;72.30
16182;DHT22;8197;51.664;7.114;2024-03-02T23:18:29;10.70;72.70
16182;DHT22;8197;51.664;7.114;2024-03-02T23:23:32;10.70;73.10
16182;DHT22;8197;51.664;7.114;2024-03-02T23:28:38;10.70;73.40
16182;DHT22;8197;51.664;7.114;2024-03-02T23:33:41;10.60;73.80
16182;DHT22;8197;51.664;7.114;2024-03-02T23:38:44;10.60;74.20
16182;DHT22;8197;51.664;7.114;2024-03-02T23:43:48;10.50;74.10
16182;DHT22;8197;51.664;7.114;2024-03-02T23:48:51;10.50;74.40
16182;DHT22;8197;51.664;7.114;2024-03-02T23:53:54;10.50;74.90
16182;DHT22;8197;51.664;7.114;2024-03-02T23:58:59;10.40;74.80
